sensor_id;sensor_type;location;lat;lon;timestamp;pressure;altitude;pressure_sealevel;temperature;humidity
32081;BME280;18593;51.426;7.030;2023-01-30T00:00:15;100796.94;;;3.65;76.90
32081;BME280;18593;51.426;7.030;2023-01-30T00:02:42;100795.28;;;3.64;76.91
32081;BME280;18593;51.426;7.030;2023-01-30T00:05:09;100811.63;;;3.67;77.45
32081;BME280;18593;51.426;7.030;2023-01-30T00:07:37;100827.59;;;3.66;77.34
32081;BME280;18593;51.426;7.030;2023-01-30T00:10:05;100828.94;;;3.70;77.64
32081;BME280;18593;51.426;7.030;2023-01-30T00:12:32;100829.63;;;3.72;77.12
32081;BME280;18593;51.426;7.030;2023-01-30T00:14:59;100808.53;;;3.72;77.22
32081;BME280;18593;51.426;7.030;2023-01-30T00:17:26;100803.91;;;3.74;77.47
32081;BME280;18593;51.426;7.030;2023-01-30T00:19:53;100803.25;;;3.72;77.70
32081;BME280;18593;51.426;7.030;2023-01-30T00:22:20;100801.28;;;3.74;77.96
32081;BME280;18593;51.426;7.030;2023-01-30T00:24:48;100801.09;;;3.75;78.10
32081;BME280;18593;51.426;7.030;2023-01-30T00:27:15;100796.50;;;3.77;77.86
32081;BME280;18593;51.426;7.030;2023-01-30T00:29:42;100785.13;;;3.77;77.83
32081;BME280;18593;51.426;7.030;2023-01-30T00:32:09;100778.34;;;3.74;78.33
32081;BME280;18593;51.426;7.030;2023-01-30T00:34:39;100766.00;;;3.75;78.19
32081;BME280;18593;51.426;7.030;2023-01-30T00:37:07;100757.78;;;3.78;78.60
32081;BME280;18593;51.426;7.030;2023-01-30T00:39:34;100760.56;;;3.76;78.83
32081;BME280;18593;51.426;7.030;2023-01-30T00:42:02;100762.06;;;3.79;78.46
32081;BME280;18593;51.426;7.030;2023-01-30T00:44:52;100748.56;;;3.82;78.55
32081;BME280;18593;51.426;7.030;2023-01-30T00:47:36;100736.19;;;3.82;78.53
32081;BME280;18593;51.426;7.030;2023-01-30T00:50:04;100734.38;;;3.83;78.79
32081;BME280;18593;51.426;7.030;2023-01-30T00:52:31;100730.91;;;3.82;79.02
32081;BME280;18593;51.426;7.030;2023-01-30T00:54:58;100743.13;;;3.83;79.31
32081;BME280;18593;51.426;7.030;2023-01-30T00:57:26;100731.75;;;3.83;79.46
32081;BME280;18593;51.426;7.030;2023-01-30T00:59:54;100721.19;;;3.83;79.24
32081;BME280;18593;51.426;7.030;2023-01-30T01:02:21;100720.69;;;3.87;79.28
32081;BME280;18593;51.426;7.030;2023-01-30T01:04:47;100725.97;;;3.87;79.53
32081;BME280;18593;51.426;7.030;2023-01-30T01:07:14;100724.47;;;3.85;79.93
32081;BME280;18593;51.426;7.030;2023-01-30T01:09:41;100712.44;;;3.82;79.67
32081;BME280;18593;51.426;7.030;2023-01-30T01:12:08;100703.53;;;3.83;80.20
32081;BME280;18593;51.426;7.030;2023-01-30T01:14:37;100702.53;;;3.84;79.99
32081;BME280;18593;51.426;7.030;2023-01-30T01:17:04;100691.84;;;3.86;80.25
32081;BME280;18593;51.426;7.030;2023-01-30T01:19:31;100680.31;;;3.87;79.75
32081;BME280;18593;51.426;7.030;2023-01-30T01:21:58;100686.91;;;3.91;79.89
32081;BME280;18593;51.426;7.030;2023-01-30T01:24:25;100695.47;;;3.93;80.46
32081;BME280;18593;51.426;7.030;2023-01-30T01:26:53;100699.94;;;3.93;80.62
32081;BME280;18593;51.426;7.030;2023-01-30T01:29:20;100705.22;;;3.93;80.64
32081;BME280;18593;51.426;7.030;2023-01-30T01:31:48;100710.19;;;3.96;81.15
32081;BME280;18593;51.426;7.030;2023-01-30T01:34:15;100700.09;;;3.99;80.96
32081;BME280;18593;51.426;7.030;2023-01-30T01:36:43;100702.75;;;3.99;81.13
32081;BME280;18593;51.426;7.030;2023-01-30T01:39:10;100695.34;;;4.03;80.94
32081;BME280;18593;51.426;7.030;2023-01-30T01:41:37;100687.25;;;4.04;81.18
32081;BME280;18593;51.426;7.030;2023-01-30T01:44:04;100703.41;;;4.09;81.19
32081;BME280;18593;51.426;7.030;2023-01-30T01:46:33;100702.44;;;4.10;81.06
32081;BME280;18593;51.426;7.030;2023-01-30T01:49:05;100677.88;;;4.10;81.14
32081;BME280;18593;51.426;7.030;2023-01-30T01:51:35;100680.34;;;4.11;81.23
32081;BME280;18593;51.426;7.030;2023-01-30T01:54:05;100687.44;;;4.11;81.72
32081;BME280;18593;51.426;7.030;2023-01-30T01:56:34;100679.34;;;4.12;81.92
32081;BME280;18593;51.426;7.030;2023-01-30T01:59:07;100672.41;;;4.11;81.88
32081;BME280;18593;51.426;7.030;2023-01-30T02:01:34;100679.16;;;4.14;82.29
32081;BME280;18593;51.426;7.030;2023-01-30T02:04:04;100669.44;;;4.14;82.17
32081;BME280;18593;51.426;7.030;2023-01-30T02:06:34;100677.34;;;4.14;82.02
32081;BME280;18593;51.426;7.030;2023-01-30T02:09:04;100659.06;;;4.13;82.49
32081;BME280;18593;51.426;7.030;2023-01-30T02:11:36;100657.09;;;4.15;82.66
32081;BME280;18593;51.426;7.030;2023-01-30T02:14:04;100647.81;;;4.19;82.29
32081;BME280;18593;51.426;7.030;2023-01-30T02:16:32;100650.16;;;4.22;82.33
32081;BME280;18593;51.426;7.030;2023-01-30T02:19:04;100640.41;;;4.23;82.43
32081;BME280;18593;51.426;7.030;2023-01-30T02:22:07;100636.78;;;4.24;81.96
32081;BME280;18593;51.426;7.030;2023-01-30T02:24:49;100625.41;;;4.23;82.25
32081;BME280;18593;51.426;7.030;2023-01-30T02:31:01;100603.78;;;4.20;82.94
32081;BME280;18593;51.426;7.030;2023-01-30T02:33:35;100606.41;;;4.20;82.78
32081;BME280;18593;51.426;7.030;2023-01-30T02:36:11;100588.94;;;4.19;83.09
32081;BME280;18593;51.426;7.030;2023-01-30T02:38:46;100594.72;;;4.22;83.33
32081;BME280;18593;51.426;7.030;2023-01-30T02:41:21;100584.16;;;4.22;83.13
32081;BME280;18593;51.426;7.030;2023-01-30T02:43:56;100577.06;;;4.23;83.18
32081;BME280;18593;51.426;7.030;2023-01-30T02:46:31;100576.22;;;4.22;83.56
32081;BME280;18593;51.426;7.030;2023-01-30T02:49:03;100581.84;;;4.27;83.63
32081;BME280;18593;51.426;7.030;2023-01-30T02:51:34;100559.56;;;4.30;83.67
32081;BME280;18593;51.426;7.030;2023-01-30T02:54:04;100573.41;;;4.32;83.42
32081;BME280;18593;51.426;7.030;2023-01-30T02:56:44;100568.13;;;4.32;83.72
32081;BME280;18593;51.426;7.030;2023-01-30T02:59:12;100574.25;;;4.32;83.75
32081;BME280;18593;51.426;7.030;2023-01-30T03:02:09;100568.47;;;4.37;83.44
32081;BME280;18593;51.426;7.030;2023-01-30T03:07:37;100563.00;;;4.38;83.54
32081;BME280;18593;51.426;7.030;2023-01-30T03:10:09;100555.75;;;4.41;83.57
32081;BME280;18593;51.426;7.030;2023-01-30T03:12:51;100572.09;;;4.44;83.28
32081;BME280;18593;51.426;7.030;2023-01-30T03:15:22;100558.53;;;4.47;83.42
32081;BME280;18593;51.426;7.030;2023-01-30T03:17:53;100562.16;;;4.46;83.62
32081;BME280;18593;51.426;7.030;2023-01-30T03:20:20;100552.25;;;4.48;83.41
32081;BME280;18593;51.426;7.030;2023-01-30T03:22:47;100550.59;;;4.47;83.18
32081;BME280;18593;51.426;7.030;2023-01-30T03:25:18;100541.69;;;4.48;83.27
32081;BME280;18593;51.426;7.030;2023-01-30T03:27:46;100545.16;;;4.49;83.57
32081;BME280;18593;51.426;7.030;2023-01-30T03:30:14;100533.63;;;4.50;83.65
32081;BME280;18593;51.426;7.030;2023-01-30T03:32:41;100534.75;;;4.47;83.71
32081;BME280;18593;51.426;7.030;2023-01-30T03:35:10;100535.94;;;4.45;84.35
32081;BME280;18593;51.426;7.030;2023-01-30T03:37:37;100532.47;;;4.44;84.30
32081;BME280;18593;51.426;7.030;2023-01-30T03:40:05;100528.66;;;4.47;84.75
32081;BME280;18593;51.426;7.030;2023-01-30T03:42:32;100510.00;;;4.48;84.56
32081;BME280;18593;51.426;7.030;2023-01-30T03:44:59;100508.53;;;4.46;84.67
32081;BME280;18593;51.426;7.030;2023-01-30T03:47:26;100504.72;;;4.48;84.85
32081;BME280;18593;51.426;7.030;2023-01-30T03:49:54;100515.28;;;4.48;84.84
32081;BME280;18593;51.426;7.030;2023-01-30T03:52:23;100517.78;;;4.50;84.69
32081;BME280;18593;51.426;7.030;2023-01-30T03:54:50;100502.38;;;4.53;84.70
32081;BME280;18593;51.426;7.030;2023-01-30T03:57:17;100497.78;;;4.55;84.84
32081;BME280;18593;51.426;7.030;2023-01-30T03:59:44;100481.09;;;4.55;84.87
32081;BME280;18593;51.426;7.030;2023-01-30T04:02:13;100484.72;;;4.54;84.93
32081;BME280;18593;51.426;7.030;2023-01-30T04:04:46;100468.88;;;4.54;84.97
32081;BME280;18593;51.426;7.030;2023-01-30T04:07:13;100492.31;;;4.57;85.15
32081;BME280;18593;51.426;7.030;2023-01-30T04:09:42;100478.91;;;4.58;85.49
32081;BME280;18593;51.426;7.030;2023-01-30T04:12:10;100490.34;;;4.59;85.21
32081;BME280;18593;51.426;7.030;2023-01-30T04:14:45;100490.16;;;4.60;85.69
32081;BME280;18593;51.426;7.030;2023-01-30T04:17:21;100490.16;;;4.60;85.57
32081;BME280;18593;51.426;7.030;2023-01-30T04:20:18;100488.81;;;4.64;85.95
32081;BME280;18593;51.426;7.030;2023-01-30T04:22:50;100482.88;;;4.62;85.89
32081;BME280;18593;51.426;7.030;2023-01-30T04:25:18;100477.25;;;4.65;86.36
32081;BME280;18593;51.426;7.030;2023-01-30T04:27:45;100483.34;;;4.66;86.63
32081;BME280;18593;51.426;7.030;2023-01-30T04:30:19;100470.97;;;4.67;86.49
32081;BME280;18593;51.426;7.030;2023-01-30T04:32:49;100484.00;;;4.68;86.64
32081;BME280;18593;51.426;7.030;2023-01-30T04:35:16;100467.00;;;4.71;86.70
32081;BME280;18593;51.426;7.030;2023-01-30T04:37:43;100465.50;;;4.68;87.08
32081;BME280;18593;51.426;7.030;2023-01-30T04:40:14;100465.34;;;4.70;87.16
32081;BME280;18593;51.426;7.030;2023-01-30T04:42:42;100463.00;;;4.75;87.03
32081;BME280;18593;51.426;7.030;2023-01-30T04:45:28;100473.22;;;4.78;86.88
32081;BME280;18593;51.426;7.030;2023-01-30T04:47:55;100466.28;;;4.77;87.18
32081;BME280;18593;51.426;7.030;2023-01-30T04:50:23;100460.00;;;4.78;87.57
32081;BME280;18593;51.426;7.030;2023-01-30T04:52:50;100467.94;;;4.78;87.51
32081;BME280;18593;51.426;7.030;2023-01-30T04:55:17;100475.84;;;4.78;87.60
32081;BME280;18593;51.426;7.030;2023-01-30T04:57:45;100465.28;;;4.78;88.15
32081;BME280;18593;51.426;7.030;2023-01-30T05:00:13;100455.38;;;4.80;87.79
32081;BME280;18593;51.426;7.030;2023-01-30T05:02:48;100449.91;;;4.81;87.77
32081;BME280;18593;51.426;7.030;2023-01-30T05:05:15;100462.78;;;4.84;88.07
32081;BME280;18593;51.426;7.030;2023-01-30T05:07:42;100455.50;;;4.86;87.49
32081;BME280;18593;51.426;7.030;2023-01-30T05:10:10;100451.84;;;4.87;88.25
32081;BME280;18593;51.426;7.030;2023-01-30T05:12:37;100449.69;;;4.91;87.55
32081;BME280;18593;51.426;7.030;2023-01-30T05:15:06;100447.88;;;4.91;87.85
32081;BME280;18593;51.426;7.030;2023-01-30T05:17:33;100453.97;;;4.92;88.06
32081;BME280;18593;51.426;7.030;2023-01-30T05:20:01;100447.53;;;4.95;87.79
32081;BME280;18593;51.426;7.030;2023-01-30T05:22:28;100440.44;;;4.95;88.13
32081;BME280;18593;51.426;7.030;2023-01-30T05:24:55;100443.88;;;4.96;88.59
32081;BME280;18593;51.426;7.030;2023-01-30T05:27:22;100434.97;;;4.97;88.84
32081;BME280;18593;51.426;7.030;2023-01-30T05:29:48;100438.41;;;4.97;88.77
32081;BME280;18593;51.426;7.030;2023-01-30T05:32:17;100428.50;;;4.99;88.90
32081;BME280;18593;51.426;7.030;2023-01-30T05:34:45;100427.50;;;5.00;88.83
32081;BME280;18593;51.426;7.030;2023-01-30T05:37:12;100431.78;;;5.01;88.90
32081;BME280;18593;51.426;7.030;2023-01-30T05:39:38;100435.09;;;5.03;88.79
32081;BME280;18593;51.426;7.030;2023-01-30T05:42:05;100440.53;;;5.02;89.40
32081;BME280;18593;51.426;7.030;2023-01-30T05:44:32;100433.28;;;5.04;89.41
32081;BME280;18593;51.426;7.030;2023-01-30T05:46:59;100426.16;;;5.04;89.71
32081;BME280;18593;51.426;7.030;2023-01-30T05:49:28;100445.31;;;5.06;89.61
32081;BME280;18593;51.426;7.030;2023-01-30T05:51:55;100437.22;;;5.08;89.60
32081;BME280;18593;51.426;7.030;2023-01-30T05:54:22;100445.59;;;5.11;89.75
32081;BME280;18593;51.426;7.030;2023-01-30T05:56:49;100432.56;;;5.10;89.92
32081;BME280;18593;51.426;7.030;2023-01-30T05:59:16;100436.69;;;5.12;90.07
32081;BME280;18593;51.426;7.030;2023-01-30T06:01:44;100438.97;;;5.15;90.23
32081;BME280;18593;51.426;7.030;2023-01-30T06:04:11;100430.22;;;5.15;90.27
32081;BME280;18593;51.426;7.030;2023-01-30T06:06:39;100443.25;;;5.16;90.35
32081;BME280;18593;51.426;7.030;2023-01-30T06:09:06;100451.84;;;5.19;90.65
32081;BME280;18593;51.426;7.030;2023-01-30T06:11:33;100458.13;;;5.18;90.75
32081;BME280;18593;51.426;7.030;2023-01-30T06:14:00;100464.69;;;5.22;91.02
32081;BME280;18593;51.426;7.030;2023-01-30T06:16:27;100468.00;;;5.24;91.24
32081;BME280;18593;51.426;7.030;2023-01-30T06:18:54;100460.06;;;5.24;91.40
32081;BME280;18593;51.426;7.030;2023-01-30T06:21:21;100462.53;;;5.25;92.10
32081;BME280;18593;51.426;7.030;2023-01-30T06:23:49;100457.03;;;5.27;91.90
32081;BME280;18593;51.426;7.030;2023-01-30T06:26:16;100445.13;;;5.31;91.80
32081;BME280;18593;51.426;7.030;2023-01-30T06:28:43;100453.72;;;5.33;91.50
32081;BME280;18593;51.426;7.030;2023-01-30T06:31:10;100440.13;;;5.36;91.25
32081;BME280;18593;51.426;7.030;2023-01-30T06:33:37;100443.25;;;5.39;91.34
32081;BME280;18593;51.426;7.030;2023-01-30T06:36:05;100447.72;;;5.39;91.19
32081;BME280;18593;51.426;7.030;2023-01-30T06:38:32;100452.66;;;5.42;91.54
32081;BME280;18593;51.426;7.030;2023-01-30T06:41:00;100451.66;;;5.43;91.25
32081;BME280;18593;51.426;7.030;2023-01-30T06:43:27;100472.44;;;5.46;91.38
32081;BME280;18593;51.426;7.030;2023-01-30T06:45:54;100473.09;;;5.48;91.43
32081;BME280;18593;51.426;7.030;2023-01-30T06:48:23;100486.13;;;5.50;91.64
32081;BME280;18593;51.426;7.030;2023-01-30T06:50:50;100472.72;;;5.51;91.28
32081;BME280;18593;51.426;7.030;2023-01-30T06:53:18;100475.38;;;5.51;91.22
32081;BME280;18593;51.426;7.030;2023-01-30T06:55:44;100486.59;;;5.53;91.37
32081;BME280;18593;51.426;7.030;2023-01-30T06:58:13;100486.94;;;5.50;91.47
32081;BME280;18593;51.426;7.030;2023-01-30T07:00:41;100485.59;;;5.54;91.31
32081;BME280;18593;51.426;7.030;2023-01-30T07:03:09;100482.75;;;5.56;91.44
32081;BME280;18593;51.426;7.030;2023-01-30T07:05:37;100486.06;;;5.58;91.59
32081;BME280;18593;51.426;7.030;2023-01-30T07:08:04;100493.19;;;5.57;91.28
32081;BME280;18593;51.426;7.030;2023-01-30T07:10:31;100491.19;;;5.59;91.26
32081;BME280;18593;51.426;7.030;2023-01-30T07:12:58;100486.53;;;5.61;91.04
32081;BME280;18593;51.426;7.030;2023-01-30T07:15:27;100478.41;;;5.63;91.44
32081;BME280;18593;51.426;7.030;2023-01-30T07:17:54;100476.41;;;5.65;91.10
32081;BME280;18593;51.426;7.030;2023-01-30T07:20:21;100473.59;;;5.66;91.08
32081;BME280;18593;51.426;7.030;2023-01-30T07:22:49;100468.13;;;5.68;91.18
32081;BME280;18593;51.426;7.030;2023-01-30T07:25:16;100466.28;;;5.68;90.78
32081;BME280;18593;51.426;7.030;2023-01-30T07:27:49;100461.63;;;5.71;90.70
32081;BME280;18593;51.426;7.030;2023-01-30T07:30:16;100467.13;;;5.69;90.44
32081;BME280;18593;51.426;7.030;2023-01-30T07:32:48;100469.75;;;5.69;90.38
32081;BME280;18593;51.426;7.030;2023-01-30T07:35:15;100488.47;;;5.67;89.62
32081;BME280;18593;51.426;7.030;2023-01-30T07:37:44;100488.47;;;5.67;89.54
32081;BME280;18593;51.426;7.030;2023-01-30T07:40:12;100490.09;;;5.68;89.57
32081;BME280;18593;51.426;7.030;2023-01-30T07:42:39;100496.03;;;5.71;89.26
32081;BME280;18593;51.426;7.030;2023-01-30T07:45:07;100515.94;;;5.66;89.29
32081;BME280;18593;51.426;7.030;2023-01-30T07:47:34;100512.91;;;5.69;89.18
32081;BME280;18593;51.426;7.030;2023-01-30T07:50:03;100513.56;;;5.72;88.73
32081;BME280;18593;51.426;7.030;2023-01-30T07:52:32;100510.94;;;5.72;88.65
32081;BME280;18593;51.426;7.030;2023-01-30T07:54:59;100522.16;;;5.74;89.04
32081;BME280;18593;51.426;7.030;2023-01-30T07:57:26;100522.63;;;5.77;88.71
32081;BME280;18593;51.426;7.030;2023-01-30T07:59:53;100521.63;;;5.78;88.52
32081;BME280;18593;51.426;7.030;2023-01-30T08:02:20;100527.72;;;5.79;88.53
32081;BME280;18593;51.426;7.030;2023-01-30T08:04:47;100524.72;;;5.82;88.24
32081;BME280;18593;51.426;7.030;2023-01-30T08:07:15;100534.31;;;5.83;88.57
32081;BME280;18593;51.426;7.030;2023-01-30T08:09:42;100528.00;;;5.84;88.07
32081;BME280;18593;51.426;7.030;2023-01-30T08:12:09;100527.00;;;5.85;87.62
32081;BME280;18593;51.426;7.030;2023-01-30T08:14:36;100525.38;;;5.84;87.60
32081;BME280;18593;51.426;7.030;2023-01-30T08:17:03;100529.66;;;5.85;87.44
32081;BME280;18593;51.426;7.030;2023-01-30T08:19:30;100529.84;;;5.83;87.28
32081;BME280;18593;51.426;7.030;2023-01-30T08:21:57;100532.97;;;5.87;87.41
32081;BME280;18593;51.426;7.030;2023-01-30T08:24:26;100534.41;;;5.89;87.23
32081;BME280;18593;51.426;7.030;2023-01-30T08:26:53;100537.88;;;5.90;87.17
32081;BME280;18593;51.426;7.030;2023-01-30T08:29:20;100549.31;;;5.90;87.31
32081;BME280;18593;51.426;7.030;2023-01-30T08:31:48;100544.84;;;5.91;87.31
32081;BME280;18593;51.426;7.030;2023-01-30T08:34:15;100543.66;;;5.93;87.08
32081;BME280;18593;51.426;7.030;2023-01-30T08:36:42;100539.19;;;5.94;86.43
32081;BME280;18593;51.426;7.030;2023-01-30T08:39:11;100538.38;;;5.93;86.24
32081;BME280;18593;51.426;7.030;2023-01-30T08:41:39;100552.91;;;5.98;86.21
32081;BME280;18593;51.426;7.030;2023-01-30T08:44:07;100562.50;;;5.99;85.85
32081;BME280;18593;51.426;7.030;2023-01-30T08:46:34;100566.97;;;5.98;85.69
32081;BME280;18593;51.426;7.030;2023-01-30T08:49:01;100565.97;;;5.99;85.77
32081;BME280;18593;51.426;7.030;2023-01-30T08:51:29;100562.31;;;6.00;84.86
32081;BME280;18593;51.426;7.030;2023-01-30T08:53:56;100550.06;;;5.99;85.34
32081;BME280;18593;51.426;7.030;2023-01-30T08:56:23;100568.78;;;5.98;84.62
32081;BME280;18593;51.426;7.030;2023-01-30T08:58:51;100558.00;;;5.99;84.29
32081;BME280;18593;51.426;7.030;2023-01-30T09:01:19;100552.28;;;5.96;83.46
32081;BME280;18593;51.426;7.030;2023-01-30T09:03:46;100573.25;;;5.97;83.47
32081;BME280;18593;51.426;7.030;2023-01-30T09:06:13;100570.44;;;5.99;83.52
32081;BME280;18593;51.426;7.030;2023-01-30T09:08:40;100562.50;;;5.99;82.99
32081;BME280;18593;51.426;7.030;2023-01-30T09:11:09;100572.06;;;6.00;82.00
32081;BME280;18593;51.426;7.030;2023-01-30T09:13:36;100569.78;;;5.97;80.99
32081;BME280;18593;51.426;7.030;2023-01-30T09:16:09;100571.25;;;5.99;80.72
32081;BME280;18593;51.426;7.030;2023-01-30T09:18:37;100572.06;;;6.00;80.18
32081;BME280;18593;51.426;7.030;2023-01-30T09:21:05;100568.59;;;5.99;80.52
32081;BME280;18593;51.426;7.030;2023-01-30T09:23:32;100574.91;;;5.98;78.98
32081;BME280;18593;51.426;7.030;2023-01-30T09:25:59;100572.25;;;5.98;79.93
32081;BME280;18593;51.426;7.030;2023-01-30T09:28:27;100586.50;;;5.97;79.53
32081;BME280;18593;51.426;7.030;2023-01-30T09:30:55;100588.13;;;5.98;79.96
32081;BME280;18593;51.426;7.030;2023-01-30T09:33:24;100589.78;;;5.99;79.58
32081;BME280;18593;51.426;7.030;2023-01-30T09:35:51;100595.06;;;5.99;79.45
32081;BME280;18593;51.426;7.030;2023-01-30T09:38:22;100593.25;;;6.00;79.56
32081;BME280;18593;51.426;7.030;2023-01-30T09:40:56;100603.00;;;5.99;79.92
32081;BME280;18593;51.426;7.030;2023-01-30T09:43:33;100599.34;;;6.00;79.15
32081;BME280;18593;51.426;7.030;2023-01-30T09:46:10;100585.31;;;6.00;78.43
32081;BME280;18593;51.426;7.030;2023-01-30T09:48:42;100594.72;;;6.02;78.43
32081;BME280;18593;51.426;7.030;2023-01-30T09:51:38;100597.56;;;6.01;77.74
32081;BME280;18593;51.426;7.030;2023-01-30T09:54:18;100587.59;;;6.03;78.04
32081;BME280;18593;51.426;7.030;2023-01-30T09:56:56;100597.84;;;6.06;78.12
32081;BME280;18593;51.426;7.030;2023-01-30T09:59:26;100601.31;;;6.06;78.24
32081;BME280;18593;51.426;7.030;2023-01-30T10:02:00;100615.19;;;6.08;78.11
32081;BME280;18593;51.426;7.030;2023-01-30T10:04:33;100618.22;;;6.05;77.19
32081;BME280;18593;51.426;7.030;2023-01-30T10:07:06;100611.09;;;6.06;77.12
32081;BME280;18593;51.426;7.030;2023-01-30T10:09:42;100606.63;;;6.06;76.16
32081;BME280;18593;51.426;7.030;2023-01-30T10:12:25;100621.31;;;6.09;76.09
32081;BME280;18593;51.426;7.030;2023-01-30T10:15:04;100625.16;;;6.06;74.08
32081;BME280;18593;51.426;7.030;2023-01-30T10:17:41;100620.47;;;6.08;74.38
32081;BME280;18593;51.426;7.030;2023-01-30T10:20:24;100633.53;;;6.10;74.22
32081;BME280;18593;51.426;7.030;2023-01-30T10:23:03;100625.44;;;6.11;73.70
32081;BME280;18593;51.426;7.030;2023-01-30T10:25:38;100622.59;;;6.13;73.73
32081;BME280;18593;51.426;7.030;2023-01-30T10:28:10;100623.41;;;6.13;73.80
32081;BME280;18593;51.426;7.030;2023-01-30T10:30:40;100620.44;;;6.16;74.38
32081;BME280;18593;51.426;7.030;2023-01-30T10:33:14;100621.25;;;6.17;72.01
32081;BME280;18593;51.426;7.030;2023-01-30T10:35:46;100623.25;;;6.15;72.24
32081;BME280;18593;51.426;7.030;2023-01-30T10:38:18;100614.31;;;6.16;72.36
32081;BME280;18593;51.426;7.030;2023-01-30T10:40:51;100615.13;;;6.16;71.67
32081;BME280;18593;51.426;7.030;2023-01-30T10:43:23;100623.69;;;6.18;71.43
32081;BME280;18593;51.426;7.030;2023-01-30T10:45:56;100607.00;;;6.18;70.72
32081;BME280;18593;51.426;7.030;2023-01-30T10:48:42;100605.84;;;6.21;71.00
32081;BME280;18593;51.426;7.030;2023-01-30T10:51:19;100612.56;;;6.23;71.40
32081;BME280;18593;51.426;7.030;2023-01-30T10:53:52;100612.22;;;6.26;71.21
32081;BME280;18593;51.426;7.030;2023-01-30T10:56:23;100605.94;;;6.27;69.67
32081;BME280;18593;51.426;7.030;2023-01-30T10:58:57;100621.00;;;6.27;69.00
32081;BME280;18593;51.426;7.030;2023-01-30T11:01:31;100610.41;;;6.27;69.69
32081;BME280;18593;51.426;7.030;2023-01-30T11:04:03;100608.75;;;6.26;70.02
32081;BME280;18593;51.426;7.030;2023-01-30T11:06:34;100614.69;;;6.28;69.46
32081;BME280;18593;51.426;7.030;2023-01-30T11:09:01;100618.63;;;6.32;69.83
32081;BME280;18593;51.426;7.030;2023-01-30T11:11:30;100626.38;;;6.33;68.72
32081;BME280;18593;51.426;7.030;2023-01-30T11:14:03;100622.09;;;6.32;69.40
32081;BME280;18593;51.426;7.030;2023-01-30T11:16:31;100625.38;;;6.34;69.55
32081;BME280;18593;51.426;7.030;2023-01-30T11:18:59;100622.72;;;6.34;69.27
32081;BME280;18593;51.426;7.030;2023-01-30T11:21:30;100627.06;;;6.35;69.04
32081;BME280;18593;51.426;7.030;2023-01-30T11:24:03;100631.53;;;6.35;69.41
32081;BME280;18593;51.426;7.030;2023-01-30T11:26:33;100630.31;;;6.37;69.29
32081;BME280;18593;51.426;7.030;2023-01-30T11:29:14;100626.03;;;6.36;69.44
32081;BME280;18593;51.426;7.030;2023-01-30T11:31:41;100630.81;;;6.41;69.41
32081;BME280;18593;51.426;7.030;2023-01-30T11:34:16;100624.31;;;6.43;68.77
32081;BME280;18593;51.426;7.030;2023-01-30T11:36:43;100618.03;;;6.44;69.44
32081;BME280;18593;51.426;7.030;2023-01-30T11:39:21;100617.00;;;6.45;68.34
32081;BME280;18593;51.426;7.030;2023-01-30T11:41:56;100618.66;;;6.47;68.28
32081;BME280;18593;51.426;7.030;2023-01-30T11:44:25;100626.41;;;6.48;68.36
32081;BME280;18593;51.426;7.030;2023-01-30T11:46:52;100621.13;;;6.48;68.56
32081;BME280;18593;51.426;7.030;2023-01-30T11:49:19;100624.44;;;6.50;69.03
32081;BME280;18593;51.426;7.030;2023-01-30T11:51:51;100625.06;;;6.52;68.43
32081;BME280;18593;51.426;7.030;2023-01-30T11:54:23;100617.09;;;6.52;67.54
32081;BME280;18593;51.426;7.030;2023-01-30T11:56:53;100613.44;;;6.53;67.70
32081;BME280;18593;51.426;7.030;2023-01-30T11:59:23;100622.88;;;6.56;67.23
32081;BME280;18593;51.426;7.030;2023-01-30T12:01:52;100625.88;;;6.53;66.95
32081;BME280;18593;51.426;7.030;2023-01-30T12:04:27;100620.41;;;6.54;67.23
32081;BME280;18593;51.426;7.030;2023-01-30T12:07:04;100626.16;;;6.58;66.68
32081;BME280;18593;51.426;7.030;2023-01-30T12:09:34;100631.09;;;6.61;67.20
32081;BME280;18593;51.426;7.030;2023-01-30T12:12:02;100639.69;;;6.63;66.56
32081;BME280;18593;51.426;7.030;2023-01-30T12:14:42;100626.28;;;6.64;65.52
32081;BME280;18593;51.426;7.030;2023-01-30T12:17:15;100620.16;;;6.64;65.90
32081;BME280;18593;51.426;7.030;2023-01-30T12:19:51;100621.59;;;6.66;65.98
32081;BME280;18593;51.426;7.030;2023-01-30T12:22:25;100623.91;;;6.69;65.79
32081;BME280;18593;51.426;7.030;2023-01-30T12:24:59;100636.13;;;6.70;66.05
32081;BME280;18593;51.426;7.030;2023-01-30T12:27:41;100633.28;;;6.72;66.29
32081;BME280;18593;51.426;7.030;2023-01-30T12:33:04;100619.03;;;6.73;65.73
32081;BME280;18593;51.426;7.030;2023-01-30T12:35:40;100632.28;;;6.73;65.20
32081;BME280;18593;51.426;7.030;2023-01-30T12:38:16;100637.41;;;6.75;65.02
32081;BME280;18593;51.426;7.030;2023-01-30T12:40:51;100646.81;;;6.77;64.87
32081;BME280;18593;51.426;7.030;2023-01-30T12:43:31;100639.06;;;6.76;64.99
32081;BME280;18593;51.426;7.030;2023-01-30T12:46:08;100626.63;;;6.76;64.95
32081;BME280;18593;51.426;7.030;2023-01-30T12:48:56;100629.75;;;6.80;65.08
32081;BME280;18593;51.426;7.030;2023-01-30T12:51:35;100613.84;;;6.80;64.56
32081;BME280;18593;51.426;7.030;2023-01-30T12:54:06;100632.00;;;6.83;64.04
32081;BME280;18593;51.426;7.030;2023-01-30T12:56:51;100638.78;;;6.85;64.24
32081;BME280;18593;51.426;7.030;2023-01-30T12:59:23;100639.63;;;6.86;64.42
32081;BME280;18593;51.426;7.030;2023-01-30T13:02:00;100643.28;;;6.85;64.65
32081;BME280;18593;51.426;7.030;2023-01-30T13:04:36;100647.56;;;6.86;64.46
32081;BME280;18593;51.426;7.030;2023-01-30T13:07:10;100642.88;;;6.88;64.71
32081;BME280;18593;51.426;7.030;2023-01-30T13:09:53;100644.38;;;6.90;63.46
32081;BME280;18593;51.426;7.030;2023-01-30T13:12:31;100652.94;;;6.92;62.87
32081;BME280;18593;51.426;7.030;2023-01-30T13:15:05;100649.47;;;6.92;63.26
32081;BME280;18593;51.426;7.030;2023-01-30T13:17:44;100654.78;;;6.92;63.08
32081;BME280;18593;51.426;7.030;2023-01-30T13:20:19;100663.56;;;6.92;63.13
32081;BME280;18593;51.426;7.030;2023-01-30T13:22:52;100664.03;;;6.96;63.59
32081;BME280;18593;51.426;7.030;2023-01-30T13:25:25;100669.13;;;6.97;64.03